Data for 09/19/2015

Time Sea-Level Adjusted Pressure Absolute Pressure Temperature Relative Humidity Dew Point   
(mb) (inHg) (mb) (inHg) (C) (F) (%) (C) (F)
00:05 1020 30.12 849 25.07 6.6 43.8 68 1.2 34.1
00:10 1020 30.12 849 25.07 6 42.8 70 1 33.9
00:15 1020 30.12 849 25.07 5.5 41.8 74 1.2 34.1
00:20 1020 30.12 849 25.07 5.1 41.1 74 0.8 33.5
00:25 1020 30.12 849 25.07 5.1 41.2 74 0.9 33.6
00:30 1020 30.12 849 25.07 4.9 40.8 75 0.8 33.4
00:35 1020 30.12 849 25.07 5.1 41.1 71 0.3 32.5
00:40 1020 30.12 849 25.07 5.8 42.4 69 0.5 33
00:45 1020 30.12 849 25.07 5.7 42.3 71 0.8 33.4
00:50 1020 30.12 849 25.07 5.6 42 71 0.6 33.1
00:55 1020 30.12 849 25.07 5.6 42.1 70 0.5 32.9
01:00 1020 30.12 849 25.07 5.7 42.2 70 0.7 33.3
01:05 1020 30.12 849 25.07 5.5 41.9 70 0.4 32.8
01:10 1020 30.12 849 25.07 5.7 42.3 70 0.7 33.2
01:15 1020 30.12 849 25.07 5.6 42.1 70 0.7 33.2
01:20 1020 30.12 849 25.07 5.5 41.8 71 0.6 33
01:25 1020 30.12 849 25.07 5.5 41.9 71 0.6 33.1
01:30 1020 30.12 849 25.07 5.4 41.7 71 0.6 33
01:35 1020 30.12 849 25.07 5.4 41.7 72 0.7 33.2
01:40 1020 30.12 849 25.07 5.1 41.1 73 0.6 33.1
01:45 1020 30.12 849 25.07 5.1 41.2 72 0.4 32.7
01:50 1020 30.12 849 25.07 5.3 41.5 72 0.6 33
01:55 1020 30.12 849 25.07 5.2 41.4 72 0.6 33
02:00 1020 30.12 849 25.07 5.2 41.4 71 0.5 32.9
02:05 1020 30.12 849 25.07 5.3 41.5 72 0.6 33
02:10 1020 30.12 849 25.07 5 41 73 0.6 33.1
02:15 1020 30.12 849 25.07 4.8 40.7 74 0.6 33.1
02:20 1020 30.12 849 25.07 4.3 39.8 77 0.6 33
02:25 1020 30.12 849 25.07 4.4 40 75 0.3 32.6
02:30 1020 30.12 849 25.07 4.7 40.5 73 0.2 32.4
02:35 1020 30.12 849 25.07 5 41.1 70 0.1 32.1
02:40 1020 30.12 849 25.07 5.3 41.6 71 0.4 32.7
02:45 1020 30.12 849 25.07 5.4 41.8 70 0.4 32.7
02:50 1020 30.12 849 25.07 5.4 41.7 71 0.6 33.1
02:55 1020 30.12 849 25.07 5.3 41.6 71 0.5 33
03:00 1020 30.12 849 25.07 5.2 41.4 71 0.4 32.7
03:05 1020 30.12 849 25.07 5.2 41.3 71 0.4 32.7
03:10 1020 30.12 849 25.07 5.1 41.2 72 0.5 32.9
03:15 1020 30.12 849 25.07 5 40.9 72 0.4 32.7
03:20 1020 30.12 849 25.07 5 41 72 0.4 32.7
03:25 1020 30.12 849 25.07 5.2 41.4 71 0.4 32.8
03:30 1020 30.12 849 25.07 5.4 41.6 71 0.5 32.9
03:35 1020 30.12 849 25.07 5 41 74 0.7 33.3
03:40 1020 30.12 849 25.07 4.4 39.9 75 0.4 32.7
03:45 1020 30.12 849 25.07 4.5 40.1 74 0.3 32.6
03:50 1020 30.12 849 25.07 4.4 39.9 76 0.6 33
03:55 1020 30.12 849 25.07 4.1 39.4 76 0.4 32.6
04:00 1020 30.12 849 25.07 4 39.3 78 0.5 32.9
04:05 1020 30.12 849 25.07 3.7 38.6 79 0.4 32.8
04:10 1020 30.12 849 25.07 3.9 38.9 77 0.3 32.5
04:15 1020 30.12 849 25.07 4.4 39.9 75 0.3 32.6
04:20 1020 30.12 849 25.07 4.6 40.2 73 0.2 32.4
04:25 1020 30.12 849 25.07 4.8 40.7 72 0.2 32.4
04:30 1020 30.12 849 25.07 4.8 40.6 72 0.3 32.5
04:35 1020 30.12 849 25.07 5 40.9 71 0.2 32.4
04:40 1020 30.12 849 25.07 5.1 41.1 71 0.3 32.6
04:45 1020 30.12 849 25.07 5.1 41.2 71 0.3 32.6
04:50 1020 30.12 849 25.07 5.1 41.3 71 0.2 32.4
04:55 1020 30.12 849 25.07 5.2 41.4 70 0.2 32.4
05:00 1020 30.12 849 25.07 5.5 41.9 69 0.2 32.4
05:05 1020 30.12 849 25.07 5.2 41.4 72 0.5 32.9
05:10 1020 30.12 849 25.07 4.9 40.8 72 0.2 32.4
05:15 1020 30.12 849 25.07 4.9 40.7 73 0.4 32.7
05:20 1020 30.12 849 25.07 4.9 40.8 72 0.3 32.5
05:25 1020 30.12 849 25.07 4.7 40.5 74 0.5 32.9
05:30 1020 30.12 849 25.07 4.4 39.9 75 0.4 32.6
05:35 1020 30.12 849 25.07 4.4 39.9 75 0.4 32.7
05:40 1020 30.12 849 25.07 4.4 40 74 0.2 32.3
05:45 1020 30.12 849 25.07 4.8 40.7 72 0.2 32.4
05:50 1020 30.12 849 25.07 4.7 40.5 75 0.6 33.2
05:55 1020 30.12 849 25.07 4.2 39.6 76 0.4 32.6
06:00 1020 30.12 849 25.07 4.1 39.4 76 0.3 32.5
06:05 1020 30.12 849 25.07 4.2 39.5 76 0.2 32.4
06:10 1020 30.12 849 25.07 4.2 39.5 76 0.3 32.5
06:15 1020 30.12 849 25.07 4.4 40 74 0.1 32.2
06:20 1020 30.12 849 25.07 4.8 40.7 71 0.1 32.2
06:25 1020 30.12 849 25.07 4.8 40.6 73 0.3 32.6
06:30 1020 30.12 849 25.07 4.9 40.8 72 0.3 32.6
06:35 1020 30.12 850 25.1 4.6 40.2 74 0.4 32.6
06:40 1021 30.15 850 25.1 4.2 39.6 76 0.3 32.6
06:45 1021 30.15 850 25.1 4.1 39.3 75 0.1 32.2
06:50 1021 30.15 850 25.1 4.3 39.8 74 0.1 32.2
06:55 1021 30.15 850 25.1 4.6 40.2 72 -0.1 31.9
07:00 1021 30.15 850 25.1 5.2 41.3 70 0.2 32.3
07:05 1021 30.15 850 25.1 5.5 41.9 68 0.2 32.3
07:10 1021 30.15 850 25.1 6 42.7 67 0.3 32.6
07:15 1021 30.15 850 25.1 6.2 43.1 67 0.6 33
07:20 1021 30.15 850 25.1 6.3 43.4 66 0.5 32.9
07:25 1021 30.15 850 25.1 6.5 43.8 66 0.6 33.1
07:30 1021 30.15 850 25.1 7.1 44.7 64 0.7 33.3
07:35 1021 30.15 850 25.1 7.7 45.9 62 0.8 33.5
07:40 1021 30.15 850 25.1 7.8 46.1 63 1.2 34.1
07:45 1021 30.15 850 25.1 7.6 45.8 63 1.1 34
07:50 1021 30.15 850 25.1 8.2 46.7 64 1.7 35.1
07:55 1021 30.15 850 25.1 8.4 47.1 63 1.8 35.3
08:00 1021 30.15 850 25.1 8.7 47.6 63 1.9 35.5
08:05 1021 30.15 850 25.1 8.8 47.9 62 2.1 35.8
08:10 1021 30.15 850 25.1 9 48.1 61 1.8 35.2
08:15 1021 30.15 850 25.1 9.6 49.3 58 1.8 35.3
08:20 1021 30.15 850 25.1 10 49.9 57 1.8 35.3
08:25 1021 30.15 850 25.1 10.4 50.8 56 2 35.6
08:30 1021 30.15 850 25.1 11.1 52 51 1.5 34.7
08:35 1021 30.15 850 25.1 11.6 52.9 48 1.2 34.1
08:40 1021 30.15 850 25.1 12.2 54 48 1.7 35
08:45 1021 30.15 850 25.1 12.9 55.1 48 2.1 35.8
08:50 1021 30.15 850 25.1 13.5 56.3 46 2.2 35.9
08:55 1021 30.15 850 25.1 12.9 55.2 49 2.5 36.5
09:00 1021 30.15 850 25.1 12.7 54.9 49 2.4 36.4
09:05 1021 30.15 850 25.1 12.1 53.8 52 2.7 36.9
09:10 1021 30.15 850 25.1 12.4 54.4 48 1.9 35.3
09:15 1021 30.15 850 25.1 13 55.4 45 1.4 34.6
09:20 1021 30.15 850 25.1 13 55.4 45 1.3 34.3
09:25 1021 30.15 850 25.1 13.8 56.8 42 1.2 34.1
09:30 1021 30.15 850 25.1 13.2 55.8 44 1.2 34.2
09:35 1020 30.12 850 25.1 13 55.4 45 1.4 34.5
09:40 1020 30.12 850 25.1 13.3 55.9 45 1.6 35
09:45 1020 30.12 850 25.1 13 55.3 43 0.9 33.6
09:50 1020 30.12 850 25.1 13.1 55.7 44 1.1 34.1
09:55 1020 30.12 850 25.1 13.7 56.7 42 1.2 34.1
10:00 1020 30.12 850 25.1 13.8 56.8 42 1.2 34.1
10:05 1020 30.12 850 25.1 13.6 56.5 43 1.2 34.1
10:10 1020 30.12 850 25.1 14.3 57.8 41 1.3 34.3
10:15 1020 30.12 850 25.1 13.9 57 40 0.8 33.4
10:20 1021 30.15 850 25.1 13.9 56.9 40 0.6 33.2
10:25 1020 30.12 850 25.1 14.8 58.6 37 0.5 32.8
10:30 1020 30.12 850 25.1 15.5 59.9 36 0.4 32.8
10:35 1020 30.12 850 25.1 15.9 60.6 36 1 33.7
10:40 1020 30.12 850 25.1 14.9 58.9 40 1.7 35
10:45 1020 30.12 850 25.1 15.4 59.6 38 1.2 34.1
10:50 1020 30.12 850 25.1 16 60.8 35 0.5 32.9
10:55 1020 30.12 850 25.1 16.4 61.5 33 0.1 32.3
11:00 1020 30.12 850 25.1 16.8 62.2 32 -0.1 31.9
11:05 1020 30.12 850 25.1 16.8 62.2 30 -0.9 30.4
11:10 1020 30.12 850 25.1 16.7 62 30 -0.6 30.9
11:15 1020 30.12 849 25.07 16.8 62.3 31 -0.5 31.2
11:20 1020 30.12 849 25.07 17 62.6 30 -0.8 30.5
11:25 1020 30.12 849 25.07 17.4 63.3 30 -0.4 31.3
11:30 1020 30.12 849 25.07 17.1 62.8 30 -0.3 31.5
11:35 1020 30.12 849 25.07 17.2 63 29 -0.9 30.3
11:40 1020 30.12 849 25.07 17.7 63.9 28 -1.1 29.9
11:45 1020 30.12 849 25.07 17.9 64.3 29 -0.3 31.5
11:50 1020 30.12 849 25.07 18.1 64.5 28 -0.4 31.4
11:55 1020 30.12 849 25.07 18 64.3 28 -0.7 30.8
12:00 1020 30.12 849 25.07 17.9 64.1 28 -0.7 30.7
12:05 1020 30.12 849 25.07 18.6 65.5 27 -0.5 31.1
12:10 1020 30.12 849 25.07 18.7 65.7 28 0.1 32.1
12:15 1020 30.12 849 25.07 18.7 65.6 26 -0.9 30.4
12:20 1020 30.12 849 25.07 18.7 65.6 28 -0.3 31.5
12:25 1020 30.12 849 25.07 18.8 65.9 27 -0.5 31.1
12:30 1019 30.09 849 25.07 19.1 66.4 27 0 32
12:35 1019 30.09 849 25.07 19.6 67.3 27 0.2 32.3
12:40 1019 30.09 849 25.07 19.5 67 25 -0.9 30.4
12:45 1019 30.09 849 25.07 19.5 67 26 -0.5 31.1
12:50 1019 30.09 849 25.07 19.2 66.6 25 -1.1 30.1
12:55 1019 30.09 849 25.07 19.5 67 26 -0.6 31
13:00 1019 30.09 848 25.04 19.6 67.3 26 -0.3 31.4
13:05 1019 30.09 848 25.04 19.8 67.6 26 -0.3 31.4
13:10 1019 30.09 848 25.04 19.4 67 26 -0.2 31.7
13:15 1019 30.09 848 25.04 19.6 67.3 25 -0.9 30.5
13:20 1019 30.09 848 25.04 20.3 68.5 23 -1.5 29.3
13:25 1019 30.09 848 25.04 19.6 67.2 27 0.3 32.6
13:30 1019 30.09 848 25.04 18.9 66 26 -0.7 30.8
13:35 1019 30.09 848 25.04 19 66.3 27 -0.4 31.3
13:40 1019 30.09 848 25.04 18.6 65.6 25 -1.6 29.1
13:45 1019 30.09 848 25.04 19.3 66.8 22 -2.9 26.7
13:50 1019 30.09 848 25.04 19.5 67.2 22 -2.6 27.2
13:55 1019 30.09 848 25.04 19.9 67.9 25 -0.7 30.8
14:00 1019 30.09 848 25.04 19.8 67.7 27 0.3 32.5
14:05 1019 30.09 848 25.04 19.7 67.5 28 0.8 33.5
14:10 1019 30.09 848 25.04 19.6 67.3 27 0.3 32.5
14:15 1019 30.09 848 25.04 19.7 67.4 26 -0.2 31.7
14:20 1019 30.09 848 25.04 19.7 67.5 25 -0.8 30.6
14:25 1019 30.09 848 25.04 19.8 67.7 25 -0.7 30.8
14:30 1019 30.09 848 25.04 19.4 66.9 26 -0.2 31.6
14:35 1019 30.09 848 25.04 19.7 67.4 27 0.1 32.2
14:40 1019 30.09 848 25.04 19.1 66.4 26 -0.5 31.2
14:45 1018 30.06 848 25.04 19 66.2 26 -1 30.3
14:50 1018 30.06 848 25.04 20.1 68.1 25 -0.5 31.1
14:55 1018 30.06 848 25.04 20.8 69.4 21 -2.1 28.1
15:00 1018 30.06 847 25.01 20.9 69.6 20 -2.7 27.1
15:05 1018 30.06 847 25.01 20.3 68.5 22 -1.8 28.8
15:10 1018 30.06 847 25.01 20.3 68.6 22 -2.2 28.1
15:15 1018 30.06 847 25.01 20.1 68.2 21 -2.6 27.3
15:20 1018 30.06 847 25.01 20.5 69 21 -2.3 27.8
15:25 1018 30.06 847 25.01 21 69.8 21 -1.9 28.5
15:30 1018 30.06 847 25.01 20.9 69.5 22 -1.5 29.3
15:35 1018 30.06 847 25.01 20.2 68.3 23 -1.4 29.4
15:40 1018 30.06 847 25.01 20.2 68.3 23 -1.3 29.7
15:45 1018 30.06 847 25.01 20.8 69.5 23 -0.8 30.5
15:50 1018 30.06 847 25.01 20.8 69.4 23 -0.8 30.6
15:55 1018 30.06 847 25.01 20.9 69.5 22 -1.4 29.4
16:00 1018 30.06 847 25.01 20.7 69.3 23 -0.9 30.4
16:05 1018 30.06 847 25.01 20.2 68.3 24 -1.1 30
16:10 1018 30.06 847 25.01 19.9 67.7 24 -1.3 29.7
16:15 1018 30.06 847 25.01 19.7 67.5 25 -0.8 30.6
16:20 1018 30.06 847 25.01 19.5 67.1 25 -0.9 30.3
16:25 1018 30.06 847 25.01 19.6 67.3 25 -1 30.2
16:30 1018 30.06 847 25.01 19.7 67.4 24 -1.2 29.8
16:35 1018 30.06 847 25.01 19.5 67 24 -1.5 29.3
16:40 1018 30.06 847 25.01 19.9 67.7 24 -1.1 30
16:45 1018 30.06 847 25.01 20.3 68.5 23 -1.3 29.6
16:50 1018 30.06 847 25.01 20.5 68.9 24 -0.7 30.7
16:55 1018 30.06 847 25.01 20.6 69.1 22 -1.6 29.1
17:00 1018 30.06 847 25.01 20.3 68.6 24 -1 30.3
17:05 1018 30.06 847 25.01 20.4 68.7 24 -0.7 30.7
17:10 1018 30.06 847 25.01 20.3 68.6 25 -0.1 31.8
17:15 1018 30.06 847 25.01 20.2 68.3 25 -0.1 31.9
17:20 1018 30.06 847 25.01 20.1 68.2 26 0.3 32.6
17:25 1018 30.06 847 25.01 19.7 67.4 27 0.2 32.3
17:30 1018 30.06 847 25.01 19.1 66.4 28 0.2 32.4
17:35 1018 30.06 847 25.01 18.7 65.6 29 0.4 32.8
17:40 1018 30.06 847 25.01 18.4 65.2 30 0.6 33
17:45 1018 30.06 847 25.01 18.2 64.8 31 1 33.7
17:50 1018 30.06 847 25.01 18 64.3 31 0.8 33.5
17:55 1018 30.06 847 25.01 17.8 64.1 32 0.9 33.6
18:00 1018 30.06 847 25.01 17.6 63.7 33 1.3 34.4
18:05 1018 30.06 847 25.01 17.4 63.2 33 1.1 34
18:10 1018 30.06 847 25.01 17.1 62.8 35 1.6 35
18:15 1018 30.06 847 25.01 17 62.5 35 1.5 34.8
18:20 1018 30.06 847 25.01 16.8 62.3 37 2 35.6
18:25 1018 30.06 847 25.01 16.6 61.9 39 2.6 36.7
18:30 1018 30.06 847 25.01 16 60.8 39 2.2 36
18:35 1018 30.06 847 25.01 15.6 60 44 3.4 38
18:40 1018 30.06 847 25.01 15 59 44 3 37.4
18:45 1018 30.06 847 25.01 15.2 59.3 39 1.4 34.5
18:50 1018 30.06 847 25.01 15.4 59.7 38 1.2 34.2
18:55 1018 30.06 847 25.01 15.6 60 35 0.2 32.4
19:00 1018 30.06 847 25.01 15.9 60.6 32 -0.6 30.9
19:05 1018 30.06 847 25.01 16.3 61.4 32 -0.2 31.7
19:10 1018 30.06 847 25.01 16.4 61.5 33 -0 32
19:15 1018 30.06 847 25.01 16.4 61.4 33 0.2 32.4
19:20 1018 30.06 847 25.01 16.3 61.3 34 0.6 33
19:25 1018 30.06 847 25.01 16 60.7 39 2.2 35.9
19:30 1018 30.06 847 25.01 15.4 59.8 35 -0.1 31.9
19:35 1018 30.06 847 25.01 15.3 59.5 37 0.7 33.2
19:40 1018 30.06 847 25.01 15.5 59.8 36 0.4 32.8
19:45 1018 30.06 847 25.01 15.4 59.8 35 0.3 32.6
19:50 1018 30.06 847 25.01 15.1 59.3 41 2.2 35.9
19:55 1018 30.06 847 25.01 14.9 58.7 39 1.2 34.1
20:00 1018 30.06 847 25.01 14.5 58 40 1.2 34.2
20:05 1018 30.06 847 25.01 14 57.2 44 1.9 35.4
20:10 1018 30.06 847 25.01 13.5 56.3 45 1.9 35.3
20:15 1018 30.06 847 25.01 13.5 56.2 45 1.7 35.1
20:20 1018 30.06 847 25.01 13.5 56.3 46 2.1 35.8
20:25 1018 30.06 848 25.04 13.5 56.2 40 0.2 32.3
20:30 1018 30.06 848 25.04 14 57.2 38 0.1 32.1
20:35 1018 30.06 848 25.04 14.4 57.8 37 0 32.1
20:40 1018 30.06 848 25.04 14.3 57.7 40 0.8 33.5
20:45 1018 30.06 848 25.04 13.8 56.9 40 0.7 33.3
20:50 1018 30.06 848 25.04 13.7 56.7 39 0.2 32.3
20:55 1018 30.06 848 25.04 14 57.2 40 0.6 33
21:00 1019 30.09 848 25.04 13.9 57 39 0.3 32.6
21:05 1019 30.09 848 25.04 14.1 57.3 38 0 32.1
21:10 1019 30.09 848 25.04 14.3 57.7 37 0.1 32.1
21:15 1019 30.09 848 25.04 14.3 57.7 38 0.3 32.6
21:20 1019 30.09 848 25.04 14.3 57.7 38 0.2 32.3
21:25 1019 30.09 848 25.04 14.3 57.7 39 0.5 32.9
21:30 1019 30.09 848 25.04 13.9 57 45 2.2 36
21:35 1019 30.09 848 25.04 13.2 55.8 39 -0.2 31.6
21:40 1019 30.09 848 25.04 14.3 57.7 37 -0 31.9
21:45 1019 30.09 848 25.04 14.4 57.8 39 0.8 33.5
21:50 1019 30.09 848 25.04 14 57.2 41 1 33.7
21:55 1019 30.09 848 25.04 13.7 56.7 42 1 33.7
22:00 1019 30.09 848 25.04 13.6 56.4 42 1 33.8
22:05 1019 30.09 848 25.04 13.6 56.4 41 0.8 33.4
22:10 1019 30.09 848 25.04 13.9 57 38 0 32
22:15 1019 30.09 848 25.04 14.1 57.4 39 0.4 32.8
22:20 1019 30.09 848 25.04 14.2 57.6 38 0.1 32.2
22:25 1019 30.09 848 25.04 14.4 57.9 37 -0.1 31.8
22:30 1019 30.09 848 25.04 14.6 58.2 37 -0 31.9
22:35 1019 30.09 848 25.04 14.4 58 38 0.4 32.6
22:40 1019 30.09 848 25.04 14.2 57.6 39 0.5 32.9
22:45 1019 30.09 848 25.04 14.1 57.4 38 0.2 32.3
22:50 1019 30.09 848 25.04 13.9 57 40 0.6 33.2
22:55 1019 30.09 848 25.04 13.6 56.5 39 -0.1 31.9
23:00 1019 30.09 848 25.04 14 57.2 39 0.2 32.4
23:05 1019 30.09 848 25.04 14 57.2 39 0.2 32.4
23:10 1019 30.09 848 25.04 13.9 57.1 39 0.1 32.3
23:15 1019 30.09 848 25.04 13.6 56.5 43 1.5 34.7
23:20 1019 30.09 848 25.04 12.6 54.6 46 1.4 34.5
23:25 1019 30.09 848 25.04 12.4 54.3 45 0.9 33.5
23:30 1019 30.09 848 25.04 12.5 54.5 43 0.4 32.8
23:35 1019 30.09 848 25.04 12.7 54.9 42 0.3 32.6
23:40 1019 30.09 848 25.04 12.8 55 48 2.1 35.8
23:45 1019 30.09 848 25.04 11.4 52.4 50 1.5 34.6
23:50 1019 30.09 848 25.04 11.5 52.6 50 1.6 34.8
23:55 1019 30.09 848 25.04 11.2 52.2 51 1.6 35
24:00 1019 30.09 848 25.04 10.8 51.4 52 1.4 34.5